createdAt,value
2019-01-23T00:01:09.288Z,43.17
2019-01-23T00:03:37.263Z,40.30
2019-01-23T00:06:04.803Z,38.97
2019-01-23T00:08:32.348Z,44.20
2019-01-23T00:10:59.861Z,49.80
2019-01-23T00:13:27.404Z,51.40
2019-01-23T00:15:56.171Z,43.43
2019-01-23T00:18:24.261Z,45.07
2019-01-23T00:20:52.655Z,40.97
2019-01-23T00:23:20.852Z,42.03
2019-01-23T00:25:49.386Z,43.57
2019-01-23T00:28:18.311Z,45.23
2019-01-23T00:30:46.512Z,38.73
2019-01-23T00:33:14.456Z,43.03
2019-01-23T00:35:42.491Z,47.97
2019-01-23T00:38:13.387Z,50.60
2019-01-23T00:40:41.238Z,40.50
2019-01-23T00:43:08.740Z,42.03
2019-01-23T00:45:36.293Z,42.17
2019-01-23T00:48:04.107Z,42.30
2019-01-23T00:50:31.967Z,43.30
2019-01-23T00:52:59.527Z,44.13
2019-01-23T00:55:27.034Z,45.67
2019-01-23T00:57:54.519Z,45.27
2019-01-23T01:00:23.541Z,43.27
2019-01-23T01:02:51.294Z,45.53
2019-01-23T01:05:19.029Z,49.17
2019-01-23T01:07:46.585Z,53.53
2019-01-23T01:10:16.625Z,41.30
2019-01-23T01:12:44.125Z,47.23
2019-01-23T01:15:13.568Z,48.70
2019-01-23T01:17:41.175Z,47.40
2019-01-23T01:20:09.511Z,46.33
2019-01-23T01:22:37.068Z,43.13
2019-01-23T01:25:06.911Z,49.03
2019-01-23T01:27:34.408Z,42.07
2019-01-23T01:30:02.148Z,42.73
2019-01-23T01:32:30.051Z,47.93
2019-01-23T01:34:57.546Z,46.63
2019-01-23T01:37:25.358Z,38.70
2019-01-23T01:39:52.928Z,49.60
2019-01-23T01:42:20.725Z,37.90
2019-01-23T01:44:48.271Z,44.53
2019-01-23T01:47:15.748Z,51.00
2019-01-23T01:49:43.340Z,41.07
2019-01-23T01:52:10.855Z,47.63
2019-01-23T01:54:38.368Z,41.53
2019-01-23T01:57:05.883Z,39.67
2019-01-23T01:59:33.668Z,46.53
2019-01-23T02:02:01.242Z,45.73
2019-01-23T02:04:28.869Z,37.60
2019-01-23T02:06:56.357Z,47.07
2019-01-23T02:09:23.859Z,46.93
2019-01-23T02:11:51.700Z,43.83
2019-01-23T02:14:19.564Z,38.17
2019-01-23T02:16:47.376Z,45.13
2019-01-23T02:19:14.864Z,38.40
2019-01-23T02:21:42.747Z,43.67
2019-01-23T02:24:10.211Z,43.37
2019-01-23T02:26:37.763Z,39.87
2019-01-23T02:29:09.506Z,33.90
2019-01-23T02:31:34.730Z,44.40
2019-01-23T02:34:02.165Z,41.73
2019-01-23T02:36:29.696Z,43.30
2019-01-23T02:38:57.256Z,35.47
2019-01-23T02:41:24.877Z,45.50
2019-01-23T02:43:52.461Z,40.33
2019-01-23T02:46:20.099Z,40.83
2019-01-23T02:48:47.693Z,39.73
2019-01-23T02:51:15.345Z,36.07
2019-01-23T02:53:42.944Z,42.40
2019-01-23T02:56:10.466Z,46.07
2019-01-23T02:58:37.983Z,36.77
2019-01-23T03:01:05.645Z,43.90
2019-01-23T03:03:33.609Z,45.10
2019-01-23T03:06:01.239Z,40.40
2019-01-23T03:08:28.871Z,37.60
2019-01-23T03:10:57.552Z,37.87
2019-01-23T03:13:25.179Z,40.00
2019-01-23T03:15:52.751Z,39.53
2019-01-23T03:18:20.284Z,39.07
2019-01-23T03:20:48.272Z,44.60
2019-01-23T03:23:15.821Z,42.60
2019-01-23T03:25:43.398Z,43.47
2019-01-23T03:28:11.011Z,41.87
2019-01-23T03:30:38.576Z,37.13
2019-01-23T03:33:06.147Z,38.97
2019-01-23T03:35:33.764Z,32.60
2019-01-23T03:38:01.594Z,40.93
2019-01-23T03:40:29.206Z,43.10
2019-01-23T03:42:56.844Z,34.03
2019-01-23T03:45:24.369Z,38.07
2019-01-23T03:47:51.912Z,41.43
2019-01-23T03:50:19.811Z,39.97
2019-01-23T03:52:47.380Z,39.40
2019-01-23T03:55:15.514Z,48.73
2019-01-23T03:57:43.208Z,42.73
2019-01-23T04:00:13.627Z,41.60
2019-01-23T04:02:41.558Z,42.40
2019-01-23T04:05:09.658Z,47.40
2019-01-23T04:07:37.216Z,42.83
2019-01-23T04:10:06.671Z,35.50
2019-01-23T04:12:34.248Z,42.27
2019-01-23T04:15:01.867Z,39.10
2019-01-23T04:17:29.435Z,42.17
2019-01-23T04:19:57.659Z,35.67
2019-01-23T04:22:25.253Z,38.83
2019-01-23T04:24:52.774Z,41.67
2019-01-23T04:27:20.312Z,41.00
2019-01-23T04:29:47.983Z,37.43
2019-01-23T04:32:15.859Z,43.50
2019-01-23T04:34:43.473Z,45.43
2019-01-23T04:37:11.125Z,40.00
2019-01-23T04:39:38.646Z,41.87
2019-01-23T04:42:06.150Z,47.87
2019-01-23T04:44:33.646Z,49.60
2019-01-23T04:47:01.184Z,48.17
2019-01-23T04:49:28.934Z,44.63
2019-01-23T04:52:06.551Z,43.17
2019-01-23T04:54:34.029Z,44.10
2019-01-23T04:57:01.574Z,39.77
2019-01-23T04:59:29.144Z,44.07
2019-01-23T05:01:56.734Z,44.70
2019-01-23T05:04:24.350Z,45.17
2019-01-23T05:06:51.941Z,53.33
2019-01-23T05:09:19.681Z,44.40
2019-01-23T05:11:47.568Z,42.00
2019-01-23T05:14:15.134Z,37.17
2019-01-23T05:16:42.682Z,43.23
2019-01-23T05:19:10.532Z,47.13
2019-01-23T05:21:38.034Z,42.60
2019-01-23T05:24:05.603Z,41.57
2019-01-23T05:26:33.132Z,46.47
2019-01-23T05:29:00.669Z,50.53
2019-01-23T05:31:28.207Z,46.00
2019-01-23T05:33:55.989Z,46.37
2019-01-23T05:36:23.857Z,46.53
2019-01-23T05:38:51.426Z,44.60
2019-01-23T05:41:19.523Z,55.77
2019-01-23T05:43:47.077Z,55.53
2019-01-23T05:46:14.629Z,56.40
2019-01-23T05:48:42.258Z,46.57
2019-01-23T05:51:10.061Z,45.90
2019-01-23T05:53:37.898Z,46.30
2019-01-23T05:56:05.591Z,41.63
2019-01-23T05:58:33.224Z,45.30
2019-01-23T06:01:00.738Z,46.50
2019-01-23T06:03:28.274Z,45.80
2019-01-23T06:05:55.830Z,50.57
2019-01-23T06:08:23.781Z,54.60
2019-01-23T06:10:51.406Z,45.43
2019-01-23T06:13:18.976Z,45.10
2019-01-23T06:15:46.517Z,50.13
2019-01-23T06:18:14.011Z,52.67
2019-01-23T06:20:41.685Z,47.70
2019-01-23T06:23:09.180Z,46.83
2019-01-23T06:25:36.809Z,52.63
2019-01-23T06:28:04.376Z,61.13
2019-01-23T06:30:32.068Z,44.23
2019-01-23T06:32:59.581Z,46.73
2019-01-23T06:35:27.223Z,44.93
2019-01-23T06:37:54.802Z,63.13
2019-01-23T06:40:22.370Z,50.37
2019-01-23T06:42:49.918Z,50.10
2019-01-23T06:45:17.825Z,55.07
2019-01-23T06:47:46.221Z,55.47
2019-01-23T06:50:15.553Z,51.53
2019-01-23T06:52:43.113Z,48.93
2019-01-23T06:55:11.062Z,51.33
2019-01-23T06:57:39.068Z,45.23
2019-01-23T07:00:16.895Z,56.63
2019-01-23T07:02:40.561Z,50.23
2019-01-23T07:05:10.906Z,51.20
2019-01-23T07:07:43.069Z,56.50
2019-01-23T07:10:14.171Z,53.53
2019-01-23T07:12:43.114Z,52.37
2019-01-23T07:15:11.684Z,51.53
2019-01-23T07:17:53.516Z,56.20
2019-01-23T07:20:33.137Z,48.50
2019-01-23T07:23:01.827Z,52.27
2019-01-23T07:25:41.317Z,55.47
2019-01-23T07:28:18.588Z,50.30
2019-01-23T07:30:46.756Z,53.53
2019-01-23T07:33:18.263Z,55.30
2019-01-23T07:36:21.708Z,56.73
2019-01-23T07:38:49.789Z,53.10
2019-01-23T07:41:20.983Z,59.60
2019-01-23T07:43:49.093Z,47.10
2019-01-23T07:46:17.595Z,56.27
2019-01-23T07:48:45.714Z,47.90
2019-01-23T07:51:13.762Z,56.53
2019-01-23T07:53:41.789Z,51.17
2019-01-23T07:56:12.254Z,53.97
2019-01-23T07:58:40.210Z,51.20
2019-01-23T08:01:08.879Z,61.97
2019-01-23T08:03:39.876Z,59.37
2019-01-23T08:06:08.256Z,56.67
2019-01-23T08:08:37.735Z,54.00
2019-01-23T08:11:06.134Z,58.97
2019-01-23T08:13:34.228Z,63.30
2019-01-23T08:16:02.037Z,59.97
2019-01-23T08:18:30.194Z,57.10
2019-01-23T08:20:59.072Z,56.93
2019-01-23T08:23:27.019Z,57.07
2019-01-23T08:25:54.928Z,52.70
2019-01-23T08:28:22.470Z,53.90
2019-01-23T08:30:50.061Z,55.87
2019-01-23T08:33:17.700Z,50.57
2019-01-23T08:35:45.413Z,58.27
2019-01-23T08:38:13.049Z,53.43
2019-01-23T08:40:41.749Z,41.30
2019-01-23T08:43:09.600Z,51.40
2019-01-23T08:45:37.248Z,44.57
2019-01-23T08:48:04.724Z,54.60
2019-01-23T08:50:43.975Z,51.20
2019-01-23T08:53:11.674Z,59.03
2019-01-23T08:55:39.190Z,52.60
2019-01-23T08:58:09.002Z,58.93
2019-01-23T09:00:36.540Z,54.20
2019-01-23T09:03:04.811Z,54.53
2019-01-23T09:05:32.368Z,51.93
2019-01-23T09:08:05.758Z,52.23
2019-01-23T09:10:35.554Z,60.03
2019-01-23T09:13:03.506Z,59.17
2019-01-23T09:15:31.052Z,50.57
2019-01-23T09:17:59.858Z,49.93
2019-01-23T09:20:27.454Z,53.33
2019-01-23T09:22:57.483Z,55.30
2019-01-23T09:25:25.208Z,57.03
2019-01-23T09:27:53.089Z,51.17
2019-01-23T09:30:30.053Z,55.00
2019-01-23T09:33:11.508Z,53.50
2019-01-23T09:36:11.208Z,49.63
2019-01-23T09:39:14.858Z,51.83
2019-01-23T09:41:58.080Z,49.07
2019-01-23T09:45:12.135Z,51.30
2019-01-23T09:48:02.280Z,51.70
2019-01-23T09:51:01.232Z,46.50
2019-01-23T09:53:54.818Z,48.27
2019-01-23T09:56:22.357Z,52.40
2019-01-23T09:58:50.020Z,47.80
2019-01-23T10:01:17.548Z,48.93
2019-01-23T10:03:47.239Z,49.30
2019-01-23T10:06:14.794Z,45.80
2019-01-23T10:08:43.599Z,46.10
2019-01-23T10:11:12.433Z,44.03
2019-01-23T10:13:40.071Z,50.23
2019-01-23T10:16:15.742Z,49.70
2019-01-23T10:18:43.301Z,50.50
2019-01-23T10:21:11.133Z,45.87
2019-01-23T10:23:40.511Z,42.07
2019-01-23T10:26:08.025Z,50.97
2019-01-23T10:28:36.708Z,42.77
2019-01-23T10:31:06.712Z,36.20
2019-01-23T10:33:33.687Z,42.73
2019-01-23T10:36:01.536Z,46.83
2019-01-23T10:38:29.515Z,46.40
2019-01-23T10:40:57.219Z,38.57
2019-01-23T10:43:30.786Z,45.77
2019-01-23T10:46:27.018Z,35.40
2019-01-23T10:51:56.530Z,43.83
2019-01-23T10:54:38.284Z,39.40
2019-01-23T10:57:07.984Z,41.83
2019-01-23T10:59:41.558Z,44.70
2019-01-23T11:02:10.043Z,47.37
2019-01-23T11:04:41.683Z,39.90
2019-01-23T11:07:10.594Z,43.23
2019-01-23T11:09:39.665Z,41.73
2019-01-23T11:12:12.259Z,39.93
2019-01-23T11:17:22.883Z,43.90
2019-01-23T11:19:51.882Z,40.37
2019-01-23T11:22:20.741Z,41.37
2019-01-23T11:24:49.143Z,43.10
2019-01-23T11:27:16.890Z,42.17
2019-01-23T11:29:44.926Z,41.63
2019-01-23T11:32:12.577Z,44.43
2019-01-23T11:34:42.257Z,46.10
2019-01-23T11:37:09.977Z,41.07
2019-01-23T11:39:37.743Z,46.60
2019-01-23T11:42:05.687Z,37.67
2019-01-23T11:44:33.318Z,44.60
2019-01-23T11:47:04.462Z,44.53
2019-01-23T11:49:32.446Z,44.80
2019-01-23T11:52:00.348Z,43.80
2019-01-23T11:54:28.285Z,44.93
2019-01-23T11:56:56.031Z,43.27
2019-01-23T11:59:24.820Z,39.90
2019-01-23T12:01:52.879Z,48.97
2019-01-23T12:04:20.677Z,45.97
2019-01-23T12:06:48.320Z,45.77
2019-01-23T12:09:15.973Z,47.43
2019-01-23T12:11:43.632Z,45.67
2019-01-23T12:14:11.364Z,51.03
2019-01-23T12:16:39.158Z,55.13
2019-01-23T12:19:07.284Z,61.63
2019-01-23T12:21:34.964Z,50.97
2019-01-23T12:24:02.704Z,42.23
2019-01-23T12:26:30.500Z,59.27
2019-01-23T12:28:58.313Z,51.30
2019-01-23T12:31:26.007Z,49.80
2019-01-23T12:33:54.947Z,57.00
2019-01-23T12:36:23.194Z,53.73
2019-01-23T12:38:51.188Z,52.47
2019-01-23T12:41:20.294Z,47.27
2019-01-23T12:43:47.985Z,52.50
2019-01-23T12:46:15.645Z,56.47
2019-01-23T12:48:43.358Z,58.03
2019-01-23T12:51:14.744Z,53.20
2019-01-23T12:53:42.591Z,50.63
2019-01-23T12:56:12.811Z,54.67
2019-01-23T12:58:40.548Z,44.20
2019-01-23T13:01:08.286Z,52.10
2019-01-23T13:03:36.524Z,54.67
2019-01-23T13:06:04.680Z,49.53
2019-01-23T13:08:34.912Z,57.30
2019-01-23T13:11:02.760Z,51.33
2019-01-23T13:13:30.469Z,50.07
2019-01-23T13:15:58.096Z,38.27
2019-01-23T13:18:25.804Z,53.00
2019-01-23T13:20:53.697Z,44.47
2019-01-23T13:23:21.563Z,61.40
2019-01-23T13:25:49.447Z,49.63
2019-01-23T13:28:17.252Z,58.50
2019-01-23T13:30:44.993Z,47.83
2019-01-23T13:33:12.744Z,51.17
2019-01-23T13:35:41.241Z,48.13
2019-01-23T13:38:12.797Z,47.73
2019-01-23T13:40:40.559Z,48.47
2019-01-23T13:43:08.295Z,52.60
2019-01-23T13:45:35.872Z,49.93
2019-01-23T13:48:04.772Z,45.73
2019-01-23T13:50:32.370Z,48.13
2019-01-23T13:53:00.015Z,46.43
2019-01-23T13:55:27.845Z,48.80
2019-01-23T13:57:56.809Z,54.57
2019-01-23T14:00:27.356Z,48.10
2019-01-23T14:02:55.283Z,49.47
2019-01-23T14:05:23.228Z,51.00
2019-01-23T14:07:51.056Z,46.73
2019-01-23T14:10:19.000Z,53.90
2019-01-23T14:12:48.036Z,42.43
2019-01-23T14:15:19.547Z,56.40
2019-01-23T14:17:47.268Z,47.83
2019-01-23T14:20:16.012Z,47.63
2019-01-23T14:22:44.037Z,49.90
2019-01-23T14:25:13.120Z,42.17
2019-01-23T14:27:41.162Z,41.83
2019-01-23T14:30:14.162Z,52.87
2019-01-23T14:32:41.780Z,49.50
2019-01-23T14:35:09.341Z,47.80
2019-01-23T14:37:37.530Z,47.87
2019-01-23T14:40:05.765Z,48.00
2019-01-23T14:42:36.807Z,38.10
2019-01-23T14:45:05.011Z,49.87
2019-01-23T14:47:32.736Z,41.83
2019-01-23T14:50:00.329Z,43.00
2019-01-23T14:52:27.999Z,39.67
2019-01-23T14:54:55.895Z,50.03
2019-01-23T14:57:23.890Z,50.43
2019-01-23T14:59:51.817Z,48.47
2019-01-23T15:02:19.581Z,55.07
2019-01-23T15:04:47.525Z,51.57
2019-01-23T15:07:16.138Z,49.20
2019-01-23T15:09:44.135Z,50.73
2019-01-23T15:12:26.696Z,49.23
2019-01-23T15:14:54.665Z,47.00
2019-01-23T15:17:22.292Z,56.50
2019-01-23T15:19:49.937Z,48.77
2019-01-23T15:22:17.621Z,60.50
2019-01-23T15:24:45.200Z,48.73
2019-01-23T15:27:12.774Z,49.97
2019-01-23T15:29:40.680Z,50.50
2019-01-23T15:32:08.339Z,52.23
2019-01-23T15:34:35.924Z,41.90
2019-01-23T15:37:03.873Z,49.90
2019-01-23T15:39:32.795Z,55.00
2019-01-23T15:42:00.686Z,50.67
2019-01-23T15:44:28.344Z,48.90
2019-01-23T15:46:55.928Z,57.17
2019-01-23T15:49:23.793Z,54.27
2019-01-23T15:51:51.693Z,52.97
2019-01-23T15:54:19.569Z,52.33
2019-01-23T15:56:47.666Z,61.30
2019-01-23T15:59:18.801Z,55.87
2019-01-23T16:01:47.134Z,54.33
2019-01-23T16:04:16.222Z,54.30
2019-01-23T16:06:44.382Z,51.50
2019-01-23T16:09:11.941Z,51.27
2019-01-23T16:11:40.502Z,53.57
2019-01-23T16:14:08.697Z,57.80
2019-01-23T16:16:53.507Z,54.63
2019-01-23T16:19:32.006Z,54.13
2019-01-23T16:22:22.784Z,48.00
2019-01-23T17:10:09.780Z,61.50
2019-01-23T17:16:56.333Z,59.73
2019-01-23T17:22:44.974Z,58.57
2019-01-23T17:40:11.798Z,64.90
2019-01-23T17:46:46.622Z,62.40
2019-01-23T17:57:26.037Z,68.23
2019-01-23T18:00:04.103Z,69.23
2019-01-23T18:02:30.214Z,66.60
2019-01-23T18:05:15.019Z,73.73
2019-01-23T18:10:33.241Z,70.53
2019-01-23T18:14:14.731Z,65.13
2019-01-23T18:17:32.346Z,57.93
2019-01-23T18:23:18.785Z,72.10
2019-01-23T18:26:05.737Z,64.00
2019-01-23T18:28:34.841Z,67.33
2019-01-23T18:31:50.333Z,74.60
2019-01-23T18:35:05.281Z,71.30
2019-01-23T18:42:26.839Z,77.47
2019-01-23T18:45:36.412Z,74.50
2019-01-23T18:48:30.778Z,77.63
2019-01-23T18:51:32.772Z,63.20
2019-01-23T18:54:03.339Z,79.77
2019-01-23T18:56:40.559Z,67.03
2019-01-23T18:59:15.898Z,79.73
2019-01-23T19:02:01.493Z,76.13
2019-01-23T19:04:35.062Z,80.90
2019-01-23T19:07:06.191Z,84.20
2019-01-23T19:09:37.915Z,76.47
2019-01-23T19:12:17.816Z,74.43
2019-01-23T19:14:45.701Z,76.60
2019-01-23T19:17:13.656Z,87.07
2019-01-23T19:19:41.925Z,75.77
2019-01-23T19:22:09.844Z,73.57
2019-01-23T19:24:37.695Z,79.23
2019-01-23T19:27:05.568Z,74.33
2019-01-23T19:29:33.470Z,72.93
2019-01-23T19:32:01.626Z,72.73
2019-01-23T19:34:29.635Z,60.10
2019-01-23T19:36:58.346Z,76.10
2019-01-23T19:39:31.117Z,70.73
2019-01-23T19:41:59.554Z,73.83
2019-01-23T19:44:28.004Z,82.03
2019-01-23T19:46:56.952Z,68.83
2019-01-23T19:49:24.643Z,88.03
2019-01-23T19:52:02.899Z,62.97
2019-01-23T19:54:33.492Z,73.90
2019-01-23T19:57:14.213Z,48.47
2019-01-23T19:59:41.866Z,71.33
2019-01-23T20:02:09.454Z,54.80
2019-01-23T20:04:38.165Z,63.53
2019-01-23T20:07:09.050Z,67.87
2019-01-23T20:09:37.517Z,65.77
2019-01-23T20:12:05.262Z,75.90
2019-01-23T20:14:33.159Z,60.40
2019-01-23T20:17:01.611Z,60.40
2019-01-23T20:19:31.026Z,80.13
2019-01-23T20:21:59.093Z,60.30
2019-01-23T20:24:27.579Z,67.80
2019-01-23T20:26:55.320Z,61.93
2019-01-23T20:29:23.493Z,67.00
2019-01-23T20:31:51.825Z,62.40
2019-01-23T20:34:20.326Z,65.47
2019-01-23T20:36:51.275Z,71.67
2019-01-23T20:39:22.376Z,71.60
2019-01-23T20:41:51.342Z,65.07
2019-01-23T20:44:23.123Z,65.90
2019-01-23T20:46:56.875Z,68.77
2019-01-23T20:49:27.294Z,65.40
2019-01-23T20:51:56.590Z,55.80
2019-01-23T20:54:28.951Z,64.03
2019-01-23T20:57:08.934Z,59.20
2019-01-23T20:59:47.305Z,53.77
2019-01-23T21:02:17.676Z,60.40
2019-01-23T21:04:48.306Z,68.53
2019-01-23T21:07:23.444Z,72.03
2019-01-23T21:09:54.660Z,62.63
2019-01-23T21:12:28.861Z,62.93
2019-01-23T21:14:58.604Z,63.33
2019-01-23T21:17:38.770Z,66.70
2019-01-23T21:20:07.590Z,66.57
2019-01-23T21:22:36.072Z,69.20
2019-01-23T21:25:07.246Z,67.47
2019-01-23T21:27:35.318Z,74.67
2019-01-23T21:30:06.483Z,67.97
2019-01-23T21:32:35.445Z,78.83
2019-01-23T21:35:10.421Z,82.70
2019-01-23T21:37:38.888Z,78.87
2019-01-23T21:40:22.142Z,76.43
2019-01-23T21:43:02.741Z,69.90
2019-01-23T21:45:47.930Z,81.70
2019-01-23T21:48:28.484Z,71.87
2019-01-23T21:50:57.884Z,68.77
2019-01-23T21:53:26.185Z,75.03
2019-01-23T21:55:55.265Z,60.53
2019-01-23T21:58:23.804Z,65.27
2019-01-23T22:01:03.859Z,70.47
2019-01-23T22:03:32.980Z,78.07
2019-01-23T22:06:33.488Z,74.13
2019-01-23T22:09:01.358Z,80.23
2019-01-23T22:11:31.074Z,62.17
2019-01-23T22:14:01.053Z,67.30
2019-01-23T22:16:34.626Z,71.10
2019-01-23T22:19:02.851Z,65.47
2019-01-23T22:21:31.021Z,71.00
2019-01-23T22:23:59.074Z,74.40
2019-01-23T22:26:27.601Z,79.23
2019-01-23T22:29:01.621Z,76.43
2019-01-23T22:31:30.247Z,87.00
2019-01-23T22:34:02.217Z,75.70
2019-01-23T22:36:37.768Z,81.37
2019-01-23T22:39:08.287Z,74.43
2019-01-23T22:41:38.635Z,67.93
2019-01-23T22:44:06.747Z,67.97
2019-01-23T22:46:35.285Z,77.23
2019-01-23T22:49:04.251Z,77.53
2019-01-23T22:51:32.359Z,78.63
2019-01-23T22:54:08.584Z,73.20
2019-01-23T22:56:37.011Z,84.43
2019-01-23T22:59:05.009Z,84.43
2019-01-23T23:01:33.251Z,77.40
2019-01-23T23:04:03.435Z,69.07
2019-01-23T23:06:31.019Z,81.67
2019-01-23T23:08:58.911Z,81.73
2019-01-23T23:11:27.210Z,85.10
2019-01-23T23:13:54.819Z,70.73
2019-01-23T23:16:22.674Z,72.20
2019-01-23T23:18:50.373Z,74.70
2019-01-23T23:21:18.310Z,72.80
2019-01-23T23:23:50.337Z,71.60
2019-01-23T23:26:16.126Z,72.10
2019-01-23T23:28:46.197Z,73.33
2019-01-23T23:31:14.292Z,91.93
2019-01-23T23:33:43.350Z,63.67
2019-01-23T23:36:13.202Z,71.13
2019-01-23T23:38:40.922Z,76.03
2019-01-23T23:41:15.524Z,67.13
2019-01-23T23:43:43.245Z,76.23
2019-01-23T23:46:11.211Z,81.30
2019-01-23T23:48:39.430Z,69.23
2019-01-23T23:51:06.969Z,76.50
2019-01-23T23:53:34.758Z,71.03
2019-01-23T23:56:02.657Z,67.13
2019-01-23T23:58:30.526Z,75.43
